DuBois Regional Airport Dubois US
ICAO: KDUJ
IATA: DUJ
Category: Medium
Scheduled Services: Yes

Elevation: 1817 ft
TransAlt. 18000 ft.

Airport Communications:
ASOS:119.025
CLEVELAND CNTR:126.72
CTAF:123
ALTOONA RDO:122.2
UNICOM:123

KDUJ Zoom In..

If you have problems with the map follow the link
https://www.worldairports.se/pages/airport.php?
ICAO=KDUJ

Runways:

(A) RW 07 length 5503 ft width 100 ft
---- / hdg 72

(B) RW 25 length 5503 ft width 100 ft
ILS 109.90 / hdg 252

Location; KDUJ
Day. 21 / Time. 05.34 Zulu
* Altimeter: 29.78
* Temperature: 03° c. 37.4°f.
* Wind from: 330° Speed 21 kn with Gusts up to 29 kn.
Dewpoint: 01° c.
Visibility: 9 Statute Miles.
Clouds: Broken 1300 ft.
Clouds: Overcast 1900 ft.

KDUJ 210534Z AUTO 33021G29KT 9SM BKN013 OVC019 03/01 A2978 RMK AO2 PK WND 32029/0527 RAB15E34 PRESRR P0001 T00280006


Wind From 330°
Speed 21 kn.

 
 
jpsmedia.com for Web Design worldairports.se 2018   terms of use